sensor_id;sensor_type;location;lat;lon;timestamp;temperature;humidity
80132;SHT30;69442;51.442;10.564;2024-01-15T00:01:53;1.89;79.57
80132;SHT30;69442;51.442;10.564;2024-01-15T00:04:18;1.89;80.74
80132;SHT30;69442;51.442;10.564;2024-01-15T00:06:44;1.83;80.20
80132;SHT30;69442;51.442;10.564;2024-01-15T00:09:09;1.83;80.04
80132;SHT30;69442;51.442;10.564;2024-01-15T00:11:35;1.89;80.85
80132;SHT30;69442;51.442;10.564;2024-01-15T00:14:00;1.89;80.05
80132;SHT30;69442;51.442;10.564;2024-01-15T00:16:25;1.82;79.63
80132;SHT30;69442;51.442;10.564;2024-01-15T00:18:51;1.86;80.44
80132;SHT30;69442;51.442;10.564;2024-01-15T00:21:16;1.85;79.66
80132;SHT30;69442;51.442;10.564;2024-01-15T00:23:44;1.89;80.48
80132;SHT30;69442;51.442;10.564;2024-01-15T00:26:10;1.91;80.17
80132;SHT30;69442;51.442;10.564;2024-01-15T00:28:36;1.85;79.66
80132;SHT30;69442;51.442;10.564;2024-01-15T00:31:02;1.86;80.95
80132;SHT30;69442;51.442;10.564;2024-01-15T00:33:27;1.86;80.03
80132;SHT30;69442;51.442;10.564;2024-01-15T00:35:53;1.87;81.12
80132;SHT30;69442;51.442;10.564;2024-01-15T00:38:18;1.91;81.56
80132;SHT30;69442;51.442;10.564;2024-01-15T00:40:43;1.86;79.92
80132;SHT30;69442;51.442;10.564;2024-01-15T00:43:09;1.85;79.94
80132;SHT30;69442;51.442;10.564;2024-01-15T00:45:34;1.87;80.74
80132;SHT30;69442;51.442;10.564;2024-01-15T00:47:59;1.89;80.81
80132;SHT30;69442;51.442;10.564;2024-01-15T00:50:26;1.91;80.87
80132;SHT30;69442;51.442;10.564;2024-01-15T00:52:51;1.92;80.52
80132;SHT30;69442;51.442;10.564;2024-01-15T00:55:17;1.87;80.70
80132;SHT30;69442;51.442;10.564;2024-01-15T00:57:42;1.86;80.55
80132;SHT30;69442;51.442;10.564;2024-01-15T01:00:08;1.87;80.91
80132;SHT30;69442;51.442;10.564;2024-01-15T01:02:34;1.85;80.44
80132;SHT30;69442;51.442;10.564;2024-01-15T01:04:59;1.86;81.39
80132;SHT30;69442;51.442;10.564;2024-01-15T01:07:25;1.86;80.75
80132;SHT30;69442;51.442;10.564;2024-01-15T01:09:50;1.86;81.32
80132;SHT30;69442;51.442;10.564;2024-01-15T01:12:16;1.82;80.66
80132;SHT30;69442;51.442;10.564;2024-01-15T01:14:42;1.79;80.94
80132;SHT30;69442;51.442;10.564;2024-01-15T01:17:07;1.75;80.58
80132;SHT30;69442;51.442;10.564;2024-01-15T01:19:33;1.86;81.81
80132;SHT30;69442;51.442;10.564;2024-01-15T01:21:58;1.89;82.01
80132;SHT30;69442;51.442;10.564;2024-01-15T01:24:23;1.89;80.44
80132;SHT30;69442;51.442;10.564;2024-01-15T01:26:49;1.92;80.49
80132;SHT30;69442;51.442;10.564;2024-01-15T01:29:14;1.96;80.82
80132;SHT30;69442;51.442;10.564;2024-01-15T01:31:43;1.89;81.14
80132;SHT30;69442;51.442;10.564;2024-01-15T01:34:09;1.87;80.29
80132;SHT30;69442;51.442;10.564;2024-01-15T01:36:35;1.86;80.61
80132;SHT30;69442;51.442;10.564;2024-01-15T01:39:00;1.85;80.51
80132;SHT30;69442;51.442;10.564;2024-01-15T01:41:26;1.89;80.71
80132;SHT30;69442;51.442;10.564;2024-01-15T01:43:51;1.87;80.88
80132;SHT30;69442;51.442;10.564;2024-01-15T01:46:17;1.85;80.49
80132;SHT30;69442;51.442;10.564;2024-01-15T01:48:43;1.87;81.43
80132;SHT30;69442;51.442;10.564;2024-01-15T01:51:08;1.91;81.27
80132;SHT30;69442;51.442;10.564;2024-01-15T01:53:35;1.85;81.08
80132;SHT30;69442;51.442;10.564;2024-01-15T01:56:02;1.87;80.66
80132;SHT30;69442;51.442;10.564;2024-01-15T01:58:29;1.86;81.24
80132;SHT30;69442;51.442;10.564;2024-01-15T02:00:56;1.85;80.61
80132;SHT30;69442;51.442;10.564;2024-01-15T02:03:22;1.92;82.26
80132;SHT30;69442;51.442;10.564;2024-01-15T02:05:48;1.93;80.62
80132;SHT30;69442;51.442;10.564;2024-01-15T02:08:14;1.98;80.72
80132;SHT30;69442;51.442;10.564;2024-01-15T02:10:40;1.98;82.27
80132;SHT30;69442;51.442;10.564;2024-01-15T02:13:05;1.99;81.14
80132;SHT30;69442;51.442;10.564;2024-01-15T02:15:30;1.95;80.83
80132;SHT30;69442;51.442;10.564;2024-01-15T02:18:00;1.95;81.22
80132;SHT30;69442;51.442;10.564;2024-01-15T02:20:26;1.99;81.31
80132;SHT30;69442;51.442;10.564;2024-01-15T02:22:51;1.99;82.12
80132;SHT30;69442;51.442;10.564;2024-01-15T02:25:18;2.02;82.33
80132;SHT30;69442;51.442;10.564;2024-01-15T02:27:44;1.99;81.18
80132;SHT30;69442;51.442;10.564;2024-01-15T02:30:11;2.02;81.57
80132;SHT30;69442;51.442;10.564;2024-01-15T02:32:38;2.00;81.35
80132;SHT30;69442;51.442;10.564;2024-01-15T02:35:04;1.98;80.92
80132;SHT30;69442;51.442;10.564;2024-01-15T02:37:29;1.95;80.65
80132;SHT30;69442;51.442;10.564;2024-01-15T02:39:55;1.86;80.80
80132;SHT30;69442;51.442;10.564;2024-01-15T02:42:20;1.91;82.01
80132;SHT30;69442;51.442;10.564;2024-01-15T02:44:45;1.91;80.82
80132;SHT30;69442;51.442;10.564;2024-01-15T02:47:11;1.89;81.60
80132;SHT30;69442;51.442;10.564;2024-01-15T02:49:36;1.95;82.67
80132;SHT30;69442;51.442;10.564;2024-01-15T02:52:01;1.86;81.10
80132;SHT30;69442;51.442;10.564;2024-01-15T02:54:27;1.81;80.37
80132;SHT30;69442;51.442;10.564;2024-01-15T02:56:53;1.79;79.99
80132;SHT30;69442;51.442;10.564;2024-01-15T02:59:18;1.81;81.15
80132;SHT30;69442;51.442;10.564;2024-01-15T03:01:43;1.82;80.11
80132;SHT30;69442;51.442;10.564;2024-01-15T03:04:09;1.89;80.62
80132;SHT30;69442;51.442;10.564;2024-01-15T03:06:34;1.87;79.39
80132;SHT30;69442;51.442;10.564;2024-01-15T03:08:59;1.85;79.25
80132;SHT30;69442;51.442;10.564;2024-01-15T03:11:25;1.91;80.88
80132;SHT30;69442;51.442;10.564;2024-01-15T03:13:50;1.83;79.38
80132;SHT30;69442;51.442;10.564;2024-01-15T03:16:16;1.83;78.88
80132;SHT30;69442;51.442;10.564;2024-01-15T03:18:41;1.82;78.62
80132;SHT30;69442;51.442;10.564;2024-01-15T03:21:06;1.83;79.55
80132;SHT30;69442;51.442;10.564;2024-01-15T03:23:32;1.87;80.97
80132;SHT30;69442;51.442;10.564;2024-01-15T03:25:57;1.89;79.73
80132;SHT30;69442;51.442;10.564;2024-01-15T03:28:22;1.83;78.83
80132;SHT30;69442;51.442;10.564;2024-01-15T03:30:48;1.86;79.29
80132;SHT30;69442;51.442;10.564;2024-01-15T03:33:13;1.86;79.86
80132;SHT30;69442;51.442;10.564;2024-01-15T03:35:38;1.86;79.60
80132;SHT30;69442;51.442;10.564;2024-01-15T03:38:04;1.85;79.44
80132;SHT30;69442;51.442;10.564;2024-01-15T03:40:29;1.87;79.95
80132;SHT30;69442;51.442;10.564;2024-01-15T03:42:54;1.85;79.18
80132;SHT30;69442;51.442;10.564;2024-01-15T03:45:20;1.86;78.31
80132;SHT30;69442;51.442;10.564;2024-01-15T03:47:45;1.83;78.62
80132;SHT30;69442;51.442;10.564;2024-01-15T03:50:10;1.87;79.42
80132;SHT30;69442;51.442;10.564;2024-01-15T03:52:36;1.85;77.75
80132;SHT30;69442;51.442;10.564;2024-01-15T03:55:01;1.83;77.65
80132;SHT30;69442;51.442;10.564;2024-01-15T03:57:26;1.85;78.13
80132;SHT30;69442;51.442;10.564;2024-01-15T03:59:52;1.83;77.84
80132;SHT30;69442;51.442;10.564;2024-01-15T04:02:17;1.83;78.43
80132;SHT30;69442;51.442;10.564;2024-01-15T04:04:43;1.82;77.92
80132;SHT30;69442;51.442;10.564;2024-01-15T04:07:11;1.83;78.55
80132;SHT30;69442;51.442;10.564;2024-01-15T04:09:36;1.85;78.98
80132;SHT30;69442;51.442;10.564;2024-01-15T04:12:02;1.83;79.52
80132;SHT30;69442;51.442;10.564;2024-01-15T04:14:27;1.82;78.30
80132;SHT30;69442;51.442;10.564;2024-01-15T04:16:53;1.81;78.56
80132;SHT30;69442;51.442;10.564;2024-01-15T04:19:19;1.78;77.16
80132;SHT30;69442;51.442;10.564;2024-01-15T04:21:44;1.75;79.82
80132;SHT30;69442;51.442;10.564;2024-01-15T04:24:09;1.75;78.80
80132;SHT30;69442;51.442;10.564;2024-01-15T04:26:35;1.76;79.14
80132;SHT30;69442;51.442;10.564;2024-01-15T04:29:00;1.69;77.90
80132;SHT30;69442;51.442;10.564;2024-01-15T04:31:26;1.68;78.56
80132;SHT30;69442;51.442;10.564;2024-01-15T04:33:54;1.69;78.49
80132;SHT30;69442;51.442;10.564;2024-01-15T04:36:19;1.75;79.02
80132;SHT30;69442;51.442;10.564;2024-01-15T04:38:45;1.76;79.31
80132;SHT30;69442;51.442;10.564;2024-01-15T04:41:13;1.71;78.13
80132;SHT30;69442;51.442;10.564;2024-01-15T04:43:39;1.65;78.35
80132;SHT30;69442;51.442;10.564;2024-01-15T04:46:05;1.69;78.38
80132;SHT30;69442;51.442;10.564;2024-01-15T04:48:31;1.65;78.05
80132;SHT30;69442;51.442;10.564;2024-01-15T04:50:57;1.74;79.76
80132;SHT30;69442;51.442;10.564;2024-01-15T04:53:22;1.72;78.32
80132;SHT30;69442;51.442;10.564;2024-01-15T04:55:47;1.72;79.03
80132;SHT30;69442;51.442;10.564;2024-01-15T04:58:13;1.66;78.72
80132;SHT30;69442;51.442;10.564;2024-01-15T05:00:38;1.69;79.18
80132;SHT30;69442;51.442;10.564;2024-01-15T05:03:04;1.72;80.02
80132;SHT30;69442;51.442;10.564;2024-01-15T05:05:29;1.71;79.29
80132;SHT30;69442;51.442;10.564;2024-01-15T05:07:55;1.71;79.01
80132;SHT30;69442;51.442;10.564;2024-01-15T05:10:20;1.68;78.52
80132;SHT30;69442;51.442;10.564;2024-01-15T05:12:45;1.76;79.74
80132;SHT30;69442;51.442;10.564;2024-01-15T05:15:11;1.78;79.64
80132;SHT30;69442;51.442;10.564;2024-01-15T05:17:36;1.66;77.58
80132;SHT30;69442;51.442;10.564;2024-01-15T05:20:01;1.66;79.13
80132;SHT30;69442;51.442;10.564;2024-01-15T05:22:28;1.68;78.52
80132;SHT30;69442;51.442;10.564;2024-01-15T05:24:53;1.68;78.02
80132;SHT30;69442;51.442;10.564;2024-01-15T05:27:19;1.68;78.33
80132;SHT30;69442;51.442;10.564;2024-01-15T05:29:44;1.72;78.68
80132;SHT30;69442;51.442;10.564;2024-01-15T05:32:10;1.68;78.35
80132;SHT30;69442;51.442;10.564;2024-01-15T05:34:35;1.69;77.60
80132;SHT30;69442;51.442;10.564;2024-01-15T05:37:00;1.68;79.12
80132;SHT30;69442;51.442;10.564;2024-01-15T05:39:26;1.69;79.38
80132;SHT30;69442;51.442;10.564;2024-01-15T05:41:51;1.64;78.54
80132;SHT30;69442;51.442;10.564;2024-01-15T05:44:17;1.59;78.82
80132;SHT30;69442;51.442;10.564;2024-01-15T05:46:42;1.58;78.67
80132;SHT30;69442;51.442;10.564;2024-01-15T05:49:08;1.64;80.75
80132;SHT30;69442;51.442;10.564;2024-01-15T05:51:33;1.66;82.75
80132;SHT30;69442;51.442;10.564;2024-01-15T05:53:59;1.61;80.80
80132;SHT30;69442;51.442;10.564;2024-01-15T05:56:24;1.68;80.21
80132;SHT30;69442;51.442;10.564;2024-01-15T05:58:49;1.64;79.53
80132;SHT30;69442;51.442;10.564;2024-01-15T06:01:15;1.61;79.39
80132;SHT30;69442;51.442;10.564;2024-01-15T06:03:41;1.65;79.40
80132;SHT30;69442;51.442;10.564;2024-01-15T06:06:06;1.66;79.09
80132;SHT30;69442;51.442;10.564;2024-01-15T06:08:33;1.66;79.39
80132;SHT30;69442;51.442;10.564;2024-01-15T06:10:58;1.66;79.30
80132;SHT30;69442;51.442;10.564;2024-01-15T06:13:24;1.64;79.37
80132;SHT30;69442;51.442;10.564;2024-01-15T06:15:49;1.61;79.86
80132;SHT30;69442;51.442;10.564;2024-01-15T06:18:14;1.65;80.13
80132;SHT30;69442;51.442;10.564;2024-01-15T06:20:40;1.72;81.27
80132;SHT30;69442;51.442;10.564;2024-01-15T06:23:05;1.68;80.40
80132;SHT30;69442;51.442;10.564;2024-01-15T06:25:30;1.68;80.30
80132;SHT30;69442;51.442;10.564;2024-01-15T06:27:56;1.66;81.10
80132;SHT30;69442;51.442;10.564;2024-01-15T06:30:21;1.59;79.85
80132;SHT30;69442;51.442;10.564;2024-01-15T06:32:46;1.59;80.04
80132;SHT30;69442;51.442;10.564;2024-01-15T06:35:12;1.62;80.02
80132;SHT30;69442;51.442;10.564;2024-01-15T06:37:37;1.57;80.48
80132;SHT30;69442;51.442;10.564;2024-01-15T06:40:03;1.61;81.10
80132;SHT30;69442;51.442;10.564;2024-01-15T06:42:28;1.58;80.02
80132;SHT30;69442;51.442;10.564;2024-01-15T06:44:54;1.50;80.65
80132;SHT30;69442;51.442;10.564;2024-01-15T06:47:19;1.57;81.85
80132;SHT30;69442;51.442;10.564;2024-01-15T06:49:44;1.55;80.87
80132;SHT30;69442;51.442;10.564;2024-01-15T06:52:10;1.65;81.99
80132;SHT30;69442;51.442;10.564;2024-01-15T06:54:36;1.59;80.40
80132;SHT30;69442;51.442;10.564;2024-01-15T06:57:02;1.58;81.14
80132;SHT30;69442;51.442;10.564;2024-01-15T06:59:27;1.62;80.93
80132;SHT30;69442;51.442;10.564;2024-01-15T07:01:53;1.59;80.23
80132;SHT30;69442;51.442;10.564;2024-01-15T07:04:18;1.52;80.53
80132;SHT30;69442;51.442;10.564;2024-01-15T07:06:43;1.62;83.89
80132;SHT30;69442;51.442;10.564;2024-01-15T07:09:09;1.69;86.40
80132;SHT30;69442;51.442;10.564;2024-01-15T07:11:36;1.69;85.19
80132;SHT30;69442;51.442;10.564;2024-01-15T07:14:01;1.65;83.03
80132;SHT30;69442;51.442;10.564;2024-01-15T07:16:26;1.71;82.54
80132;SHT30;69442;51.442;10.564;2024-01-15T07:18:52;1.71;82.17
80132;SHT30;69442;51.442;10.564;2024-01-15T07:21:17;1.65;81.17
80132;SHT30;69442;51.442;10.564;2024-01-15T07:23:42;1.61;81.04
80132;SHT30;69442;51.442;10.564;2024-01-15T07:26:08;1.59;81.16
80132;SHT30;69442;51.442;10.564;2024-01-15T07:28:33;1.57;81.03
80132;SHT30;69442;51.442;10.564;2024-01-15T07:30:58;1.57;81.04
80132;SHT30;69442;51.442;10.564;2024-01-15T07:33:26;1.55;80.80
80132;SHT30;69442;51.442;10.564;2024-01-15T07:35:51;1.55;80.96
80132;SHT30;69442;51.442;10.564;2024-01-15T07:38:16;1.52;80.87
80132;SHT30;69442;51.442;10.564;2024-01-15T07:40:42;1.58;81.27
80132;SHT30;69442;51.442;10.564;2024-01-15T07:43:07;1.57;80.53
80132;SHT30;69442;51.442;10.564;2024-01-15T07:48:55;1.62;80.78
80132;SHT30;69442;51.442;10.564;2024-01-15T07:51:24;1.61;80.53
80132;SHT30;69442;51.442;10.564;2024-01-15T07:53:49;1.55;80.35
80132;SHT30;69442;51.442;10.564;2024-01-15T07:56:15;1.54;80.50
80132;SHT30;69442;51.442;10.564;2024-01-15T07:58:41;1.52;81.13
80132;SHT30;69442;51.442;10.564;2024-01-15T08:01:06;1.57;81.25
80132;SHT30;69442;51.442;10.564;2024-01-15T08:03:32;1.57;81.10
80132;SHT30;69442;51.442;10.564;2024-01-15T08:05:58;1.61;80.95
80132;SHT30;69442;51.442;10.564;2024-01-15T08:08:24;1.61;80.85
80132;SHT30;69442;51.442;10.564;2024-01-15T08:10:51;1.62;80.59
80132;SHT30;69442;51.442;10.564;2024-01-15T08:13:17;1.64;80.34
80132;SHT30;69442;51.442;10.564;2024-01-15T08:15:42;1.64;80.55
80132;SHT30;69442;51.442;10.564;2024-01-15T08:18:07;1.61;80.60
80132;SHT30;69442;51.442;10.564;2024-01-15T08:20:33;1.54;80.87
80132;SHT30;69442;51.442;10.564;2024-01-15T08:22:58;1.52;81.09
80132;SHT30;69442;51.442;10.564;2024-01-15T08:25:24;1.52;80.92
80132;SHT30;69442;51.442;10.564;2024-01-15T08:27:51;1.51;80.99
80132;SHT30;69442;51.442;10.564;2024-01-15T08:30:16;1.55;81.62
80132;SHT30;69442;51.442;10.564;2024-01-15T08:32:44;1.57;81.47
80132;SHT30;69442;51.442;10.564;2024-01-15T08:35:09;1.55;81.15
80132;SHT30;69442;51.442;10.564;2024-01-15T08:37:35;1.51;81.27
80132;SHT30;69442;51.442;10.564;2024-01-15T08:40:00;1.51;81.64
80132;SHT30;69442;51.442;10.564;2024-01-15T08:42:25;1.55;81.54
80132;SHT30;69442;51.442;10.564;2024-01-15T08:44:51;1.61;81.75
80132;SHT30;69442;51.442;10.564;2024-01-15T08:47:16;1.62;81.26
80132;SHT30;69442;51.442;10.564;2024-01-15T08:49:42;1.62;81.49
80132;SHT30;69442;51.442;10.564;2024-01-15T08:52:09;1.61;81.27
80132;SHT30;69442;51.442;10.564;2024-01-15T08:54:35;1.57;80.92
80132;SHT30;69442;51.442;10.564;2024-01-15T08:57:00;1.61;81.57
80132;SHT30;69442;51.442;10.564;2024-01-15T08:59:25;1.61;81.57
80132;SHT30;69442;51.442;10.564;2024-01-15T09:01:54;1.51;81.29
80132;SHT30;69442;51.442;10.564;2024-01-15T09:04:22;1.55;81.68
80132;SHT30;69442;51.442;10.564;2024-01-15T09:06:48;1.64;81.92
80132;SHT30;69442;51.442;10.564;2024-01-15T09:09:14;1.65;82.15
80132;SHT30;69442;51.442;10.564;2024-01-15T09:11:40;1.62;81.86
80132;SHT30;69442;51.442;10.564;2024-01-15T09:14:06;1.64;81.97
80132;SHT30;69442;51.442;10.564;2024-01-15T09:16:31;1.64;81.66
80132;SHT30;69442;51.442;10.564;2024-01-15T09:18:57;1.62;81.77
80132;SHT30;69442;51.442;10.564;2024-01-15T09:21:23;1.66;81.78
80132;SHT30;69442;51.442;10.564;2024-01-15T09:23:50;1.62;81.61
80132;SHT30;69442;51.442;10.564;2024-01-15T09:26:15;1.68;82.02
80132;SHT30;69442;51.442;10.564;2024-01-15T09:28:41;1.71;82.15
80132;SHT30;69442;51.442;10.564;2024-01-15T09:31:06;1.71;82.02
80132;SHT30;69442;51.442;10.564;2024-01-15T09:33:31;1.66;82.04
80132;SHT30;69442;51.442;10.564;2024-01-15T09:35:57;1.64;82.15
80132;SHT30;69442;51.442;10.564;2024-01-15T09:38:22;1.61;81.82
80132;SHT30;69442;51.442;10.564;2024-01-15T09:40:49;1.69;82.13
80132;SHT30;69442;51.442;10.564;2024-01-15T09:43:15;1.66;82.12
80132;SHT30;69442;51.442;10.564;2024-01-15T09:45:42;1.74;81.97
80132;SHT30;69442;51.442;10.564;2024-01-15T09:48:08;1.72;81.67
80132;SHT30;69442;51.442;10.564;2024-01-15T09:50:34;1.71;81.91
80132;SHT30;69442;51.442;10.564;2024-01-15T09:52:59;1.69;81.85
80132;SHT30;69442;51.442;10.564;2024-01-15T09:55:25;1.66;81.92
80132;SHT30;69442;51.442;10.564;2024-01-15T09:57:52;1.69;82.10
80132;SHT30;69442;51.442;10.564;2024-01-15T10:00:20;1.74;82.21
80132;SHT30;69442;51.442;10.564;2024-01-15T10:02:46;1.75;82.11
80132;SHT30;69442;51.442;10.564;2024-01-15T10:05:11;1.75;82.13
80132;SHT30;69442;51.442;10.564;2024-01-15T10:07:37;1.75;82.12
80132;SHT30;69442;51.442;10.564;2024-01-15T10:10:04;1.76;81.63
80132;SHT30;69442;51.442;10.564;2024-01-15T10:12:29;1.72;81.76
80132;SHT30;69442;51.442;10.564;2024-01-15T10:14:56;1.75;82.38
80132;SHT30;69442;51.442;10.564;2024-01-15T10:17:21;1.78;82.76
80132;SHT30;69442;51.442;10.564;2024-01-15T10:19:47;1.76;82.52
80132;SHT30;69442;51.442;10.564;2024-01-15T10:22:14;1.76;82.77
80132;SHT30;69442;51.442;10.564;2024-01-15T10:24:40;1.76;82.61
80132;SHT30;69442;51.442;10.564;2024-01-15T10:27:07;1.74;82.51
80132;SHT30;69442;51.442;10.564;2024-01-15T10:29:33;1.75;82.67
80132;SHT30;69442;51.442;10.564;2024-01-15T10:31:59;1.75;82.42
80132;SHT30;69442;51.442;10.564;2024-01-15T10:34:25;1.79;82.89
80132;SHT30;69442;51.442;10.564;2024-01-15T10:36:50;1.81;82.37
80132;SHT30;69442;51.442;10.564;2024-01-15T10:39:21;1.81;82.18
80132;SHT30;69442;51.442;10.564;2024-01-15T10:41:46;1.82;82.00
80132;SHT30;69442;51.442;10.564;2024-01-15T10:44:12;1.81;82.03
80132;SHT30;69442;51.442;10.564;2024-01-15T10:46:38;1.78;82.10
80132;SHT30;69442;51.442;10.564;2024-01-15T10:49:04;1.79;82.09
80132;SHT30;69442;51.442;10.564;2024-01-15T10:51:30;1.81;82.24
80132;SHT30;69442;51.442;10.564;2024-01-15T10:53:56;1.83;82.39
80132;SHT30;69442;51.442;10.564;2024-01-15T10:56:22;1.79;82.26
80132;SHT30;69442;51.442;10.564;2024-01-15T10:58:49;1.79;82.32
80132;SHT30;69442;51.442;10.564;2024-01-15T11:01:15;1.83;82.88
80132;SHT30;69442;51.442;10.564;2024-01-15T11:03:42;1.82;82.57
80132;SHT30;69442;51.442;10.564;2024-01-15T11:06:18;1.83;82.47
80132;SHT30;69442;51.442;10.564;2024-01-15T11:08:49;1.86;82.82
80132;SHT30;69442;51.442;10.564;2024-01-15T11:11:18;1.89;83.16
80132;SHT30;69442;51.442;10.564;2024-01-15T11:13:46;1.89;82.78
80132;SHT30;69442;51.442;10.564;2024-01-15T11:16:13;1.86;82.37
80132;SHT30;69442;51.442;10.564;2024-01-15T11:18:42;1.87;82.27
80132;SHT30;69442;51.442;10.564;2024-01-15T11:23:46;1.95;82.75
80132;SHT30;69442;51.442;10.564;2024-01-15T11:29:07;1.91;82.84
80132;SHT30;69442;51.442;10.564;2024-01-15T11:34:05;1.96;82.85
80132;SHT30;69442;51.442;10.564;2024-01-15T11:41:54;1.92;82.27
80132;SHT30;69442;51.442;10.564;2024-01-15T11:44:21;1.96;81.84
80132;SHT30;69442;51.442;10.564;2024-01-15T11:47:01;1.93;81.85
80132;SHT30;69442;51.442;10.564;2024-01-15T11:51:58;1.93;81.42
80132;SHT30;69442;51.442;10.564;2024-01-15T11:54:25;1.92;82.07
80132;SHT30;69442;51.442;10.564;2024-01-15T11:56:54;1.96;81.42
80132;SHT30;69442;51.442;10.564;2024-01-15T11:59:20;1.93;81.49
80132;SHT30;69442;51.442;10.564;2024-01-15T12:01:45;1.91;81.21
80132;SHT30;69442;51.442;10.564;2024-01-15T12:04:11;1.96;82.47
80132;SHT30;69442;51.442;10.564;2024-01-15T12:06:36;2.00;81.86
80132;SHT30;69442;51.442;10.564;2024-01-15T12:09:08;2.00;81.36
80132;SHT30;69442;51.442;10.564;2024-01-15T12:11:35;1.99;81.72
80132;SHT30;69442;51.442;10.564;2024-01-15T12:14:01;1.99;82.13
80132;SHT30;69442;51.442;10.564;2024-01-15T12:16:27;2.00;81.80
80132;SHT30;69442;51.442;10.564;2024-01-15T12:18:52;2.02;81.99
80132;SHT30;69442;51.442;10.564;2024-01-15T12:21:17;2.00;81.43
80132;SHT30;69442;51.442;10.564;2024-01-15T12:23:46;1.99;80.61
80132;SHT30;69442;51.442;10.564;2024-01-15T12:26:13;2.00;81.27
80132;SHT30;69442;51.442;10.564;2024-01-15T12:28:39;1.93;80.38
80132;SHT30;69442;51.442;10.564;2024-01-15T12:31:05;1.95;80.73
80132;SHT30;69442;51.442;10.564;2024-01-15T12:33:30;1.99;81.56
80132;SHT30;69442;51.442;10.564;2024-01-15T12:35:56;2.00;81.18
80132;SHT30;69442;51.442;10.564;2024-01-15T12:38:21;2.00;80.16
80132;SHT30;69442;51.442;10.564;2024-01-15T12:40:46;2.02;80.02
80132;SHT30;69442;51.442;10.564;2024-01-15T12:43:12;2.00;79.87
80132;SHT30;69442;51.442;10.564;2024-01-15T12:45:37;1.99;79.67
80132;SHT30;69442;51.442;10.564;2024-01-15T12:48:06;2.05;79.83
80132;SHT30;69442;51.442;10.564;2024-01-15T12:50:33;2.06;79.78
80132;SHT30;69442;51.442;10.564;2024-01-15T12:52:58;2.02;79.47
80132;SHT30;69442;51.442;10.564;2024-01-15T12:55:24;2.05;81.26
80132;SHT30;69442;51.442;10.564;2024-01-15T12:57:50;2.00;80.92
80132;SHT30;69442;51.442;10.564;2024-01-15T13:00:19;1.99;80.60
80132;SHT30;69442;51.442;10.564;2024-01-15T13:02:45;2.05;81.77
80132;SHT30;69442;51.442;10.564;2024-01-15T13:05:11;2.00;80.63
80132;SHT30;69442;51.442;10.564;2024-01-15T13:07:36;1.99;80.18
80132;SHT30;69442;51.442;10.564;2024-01-15T13:10:02;2.02;79.69
80132;SHT30;69442;51.442;10.564;2024-01-15T13:12:28;2.05;80.44
80132;SHT30;69442;51.442;10.564;2024-01-15T13:14:53;2.07;81.11
80132;SHT30;69442;51.442;10.564;2024-01-15T13:17:19;2.09;81.99
80132;SHT30;69442;51.442;10.564;2024-01-15T13:19:46;2.10;82.77
80132;SHT30;69442;51.442;10.564;2024-01-15T13:22:11;2.11;82.39
80132;SHT30;69442;51.442;10.564;2024-01-15T13:24:39;2.02;81.53
80132;SHT30;69442;51.442;10.564;2024-01-15T13:27:04;2.07;82.55
80132;SHT30;69442;51.442;10.564;2024-01-15T13:29:31;2.07;82.16
80132;SHT30;69442;51.442;10.564;2024-01-15T13:31:57;2.06;81.23
80132;SHT30;69442;51.442;10.564;2024-01-15T13:34:22;2.07;81.01
80132;SHT30;69442;51.442;10.564;2024-01-15T13:36:48;2.03;79.70
80132;SHT30;69442;51.442;10.564;2024-01-15T13:39:15;2.03;80.41
80132;SHT30;69442;51.442;10.564;2024-01-15T13:45:06;2.03;79.76
80132;SHT30;69442;51.442;10.564;2024-01-15T13:47:32;2.06;80.97
80132;SHT30;69442;51.442;10.564;2024-01-15T13:49:58;2.07;80.73
80132;SHT30;69442;51.442;10.564;2024-01-15T13:52:24;2.10;81.26
80132;SHT30;69442;51.442;10.564;2024-01-15T13:54:49;2.09;80.64
80132;SHT30;69442;51.442;10.564;2024-01-15T13:57:15;2.11;80.76
80132;SHT30;69442;51.442;10.564;2024-01-15T13:59:40;2.05;78.72
80132;SHT30;69442;51.442;10.564;2024-01-15T14:02:06;2.05;78.39
80132;SHT30;69442;51.442;10.564;2024-01-15T14:04:31;2.10;79.51
80132;SHT30;69442;51.442;10.564;2024-01-15T14:06:56;2.11;79.36
80132;SHT30;69442;51.442;10.564;2024-01-15T14:09:22;2.10;78.71
80132;SHT30;69442;51.442;10.564;2024-01-15T14:11:48;2.10;80.72
80132;SHT30;69442;51.442;10.564;2024-01-15T14:14:14;2.07;78.62
80132;SHT30;69442;51.442;10.564;2024-01-15T14:16:39;2.03;77.84
80132;SHT30;69442;51.442;10.564;2024-01-15T14:22:27;2.00;78.26
80132;SHT30;69442;51.442;10.564;2024-01-15T14:24:52;2.00;78.90
80132;SHT30;69442;51.442;10.564;2024-01-15T14:27:17;2.00;78.58
80132;SHT30;69442;51.442;10.564;2024-01-15T14:29:43;2.02;78.26
80132;SHT30;69442;51.442;10.564;2024-01-15T14:32:08;2.06;78.88
80132;SHT30;69442;51.442;10.564;2024-01-15T14:34:34;2.02;77.86
80132;SHT30;69442;51.442;10.564;2024-01-15T14:37:02;2.07;79.28
80132;SHT30;69442;51.442;10.564;2024-01-15T14:39:27;2.06;78.33
80132;SHT30;69442;51.442;10.564;2024-01-15T14:41:53;2.09;79.62
80132;SHT30;69442;51.442;10.564;2024-01-15T14:44:18;2.11;78.75
80132;SHT30;69442;51.442;10.564;2024-01-15T14:46:44;2.05;79.13
80132;SHT30;69442;51.442;10.564;2024-01-15T14:49:09;2.03;78.74
80132;SHT30;69442;51.442;10.564;2024-01-15T14:51:34;1.98;77.69
80132;SHT30;69442;51.442;10.564;2024-01-15T14:53:59;1.93;78.02
80132;SHT30;69442;51.442;10.564;2024-01-15T14:56:25;2.00;78.48
80132;SHT30;69442;51.442;10.564;2024-01-15T14:58:50;1.98;78.68
80132;SHT30;69442;51.442;10.564;2024-01-15T15:01:16;2.02;79.08
80132;SHT30;69442;51.442;10.564;2024-01-15T15:03:41;2.00;78.38
80132;SHT30;69442;51.442;10.564;2024-01-15T15:06:07;1.92;77.66
80132;SHT30;69442;51.442;10.564;2024-01-15T15:08:36;2.02;78.91
80132;SHT30;69442;51.442;10.564;2024-01-15T15:11:02;2.03;80.18
80132;SHT30;69442;51.442;10.564;2024-01-15T15:13:28;2.00;78.42
80132;SHT30;69442;51.442;10.564;2024-01-15T15:15:53;2.03;79.14
80132;SHT30;69442;51.442;10.564;2024-01-15T15:18:19;1.99;78.93
80132;SHT30;69442;51.442;10.564;2024-01-15T15:20:46;1.98;77.59
80132;SHT30;69442;51.442;10.564;2024-01-15T15:23:12;1.98;77.37
80132;SHT30;69442;51.442;10.564;2024-01-15T15:25:37;1.92;77.50
80132;SHT30;69442;51.442;10.564;2024-01-15T15:28:03;1.95;77.42
80132;SHT30;69442;51.442;10.564;2024-01-15T15:30:31;1.98;77.83
80132;SHT30;69442;51.442;10.564;2024-01-15T15:32:56;2.02;79.55
80132;SHT30;69442;51.442;10.564;2024-01-15T15:35:22;1.96;77.68
80132;SHT30;69442;51.442;10.564;2024-01-15T15:37:47;1.98;77.55
80132;SHT30;69442;51.442;10.564;2024-01-15T15:40:13;2.02;77.54
80132;SHT30;69442;51.442;10.564;2024-01-15T15:42:38;2.03;77.36
80132;SHT30;69442;51.442;10.564;2024-01-15T15:45:04;2.00;77.24
80132;SHT30;69442;51.442;10.564;2024-01-15T15:47:30;2.03;77.88